Time;durP1;ratioP1;P1;durP2;ratioP2;P2;SDS_P1;SDS_P2;PMS_P1;PMS_P2;Temp;Humidity;BMP_temperature;BMP_pressure;BME280_temperature;BME280_humidity;BME280_pressure;Samples;Min_cycle;Max_cycle;Signal;HPM_P1;HPM_P2
2024/01/03 00:55:37;;;;;;;8.32;2.22;;;8.50;99.90;;;;;;4924032;29;20046;-92
2024/01/03 01:12:50;;;;;;;8.97;3.63;;;7.70;99.90;;;;;;4917886;29;20119;-91
2024/01/03 01:19:05;;;;;;;10.00;2.35;;;9.80;99.90;;;;;;5289793;23;20193;-93
2024/01/03 01:21:42;;;;;;;8.90;3.33;;;8.40;99.90;;;;;;5630121;23;20964;31
2024/01/03 02:12:38;;;;;;;6.57;1.47;;;9.40;99.90;;;;;;5083728;23;21273;-92
2024/01/03 02:19:08;;;;;;;7.97;1.53;;;8.20;99.90;;;;;;4918687;29;20134;-90
2024/01/03 02:21:56;;;;;;;7.93;2.20;;;8.20;99.90;;;;;;4900828;29;20392;-96
2024/01/03 02:24:43;;;;;;;6.03;1.60;;;8.60;99.90;;;;;;4905569;29;20052;-96
2024/01/03 02:27:47;;;;;;;8.35;1.50;;;9.20;99.90;;;;;;4903689;29;20044;-94
2024/01/03 02:42:43;;;;;;;4.00;1.30;;;8.30;99.90;;;;;;4918966;29;20054;-93
2024/01/03 02:45:32;;;;;;;5.40;1.38;;;9.00;99.90;;;;;;4919151;29;20044;-90
2024/01/03 03:11:55;;;;;;;8.90;1.80;;;8.20;99.90;;;;;;5055719;23;20059;-94
2024/01/03 03:17:19;;;;;;;11.33;1.90;;;8.40;99.90;;;;;;5140588;23;20070;-92
2024/01/03 06:11:06;;;;;;;19.43;3.33;;;9.20;99.90;;;;;;5678062;23;20051;31
2024/01/03 07:15:25;;;;;;;17.67;2.33;;;10.30;99.90;;;;;;4935507;29;20130;-91
2024/01/03 07:30:29;;;;;;;13.43;2.50;;;9.30;99.90;;;;;;5705873;23;20579;-93
2024/01/03 07:42:21;;;;;;;15.60;2.47;;;9.30;99.90;;;;;;5016774;23;20079;-89
2024/01/03 07:56:41;;;;;;;22.30;7.93;;;9.30;99.90;;;;;;4918616;29;20564;-90
2024/01/03 08:07:26;;;;;;;12.80;2.45;;;9.70;99.90;;;;;;5481198;23;20060;31
2024/01/03 08:24:31;;;;;;;18.88;4.22;;;9.50;99.90;;;;;;4938549;29;20047;-92
2024/01/03 08:30:46;;;;;;;17.67;2.55;;;9.50;99.90;;;;;;4937458;29;20070;-90
2024/01/03 08:37:43;;;;;;;17.07;3.33;;;9.30;99.90;;;;;;4925828;29;20066;-89
2024/01/03 08:40:09;;;;;;;17.30;3.63;;;10.30;99.90;;;;;;4929994;23;20058;-90
2024/01/03 08:42:40;;;;;;;19.80;3.30;;;9.30;99.90;;;;;;4924132;29;20054;-91
2024/01/03 08:45:42;;;;;;;17.67;3.03;;;10.40;99.90;;;;;;4920180;29;20048;-92
2024/01/03 08:58:22;;;;;;;18.23;4.37;;;9.50;99.90;;;;;;5151573;23;20090;-91
2024/01/03 09:01:06;;;;;;;14.82;2.75;;;10.00;99.90;;;;;;5185985;23;20088;-86
2024/01/03 09:07:26;;;;;;;16.53;2.63;;;8.90;99.90;;;;;;4917495;29;20055;-89
2024/01/03 09:10:01;;;;;;;16.00;3.15;;;10.00;99.90;;;;;;4898909;29;20108;-90
2024/01/03 09:12:27;;;;;;;10.40;2.42;;;9.40;99.90;;;;;;4900187;29;20112;-89
2024/01/03 09:21:31;;;;;;;15.10;3.70;;;9.00;99.90;;;;;;4958508;23;20110;-89
2024/01/03 09:34:41;;;;;;;11.25;2.97;;;9.10;99.90;;;;;;5744273;23;20039;-89
2024/01/03 09:58:07;;;;;;;11.57;2.75;;;10.10;99.90;;;;;;4879500;29;20140;-91
2024/01/03 10:01:30;;;;;;;;;;;;;;;;;;;;;
2024/01/03 10:04:06;;;;;;;8.73;2.22;;;8.90;99.90;;;;;;4847791;29;20088;-91
2024/01/03 10:07:02;;;;;;;10.40;2.40;;;10.70;99.90;;;;;;4876383;29;20056;-91
2024/01/03 10:10:01;;;;;;;11.98;2.75;;;9.50;99.90;;;;;;4861180;29;20070;-90
2024/01/03 10:12:33;;;;;;;15.60;2.33;;;9.00;99.90;;;;;;4865031;29;20056;-91
2024/01/03 10:15:39;;;;;;;10.40;2.17;;;10.00;99.90;;;;;;4867372;29;20048;-91
2024/01/03 10:23:21;;;;;;;8.30;1.90;;;9.30;99.90;;;;;;5127703;23;20059;-90
2024/01/03 10:25:46;;;;;;;6.80;1.65;;;10.20;99.90;;;;;;4939486;23;21183;-91
2024/01/03 10:28:22;;;;;;;9.02;1.92;;;10.20;99.90;;;;;;4938082;23;20103;-89
2024/01/03 10:34:52;;;;;;;;;;;;;;;;;;;;;
2024/01/03 10:38:50;;;;;;;;;;;;;;;;;;;;;
2024/01/03 10:42:08;;;;;;;11.63;1.83;;;9.40;99.90;;;;;;4889631;29;20047;-91
2024/01/03 10:45:03;;;;;;;11.98;2.70;;;9.70;99.90;;;;;;4904859;28;20051;-91
2024/01/03 10:48:10;;;;;;;12.57;2.25;;;9.70;99.90;;;;;;4908374;29;20078;-89
2024/01/03 10:54:32;;;;;;;;;;;;;;;;;;;;;
2024/01/03 10:57:54;;;;;;;15.10;2.85;;;9.30;99.90;;;;;;4901827;29;20063;-87
2024/01/03 11:00:49;;;;;;;14.63;2.55;;;9.60;99.90;;;;;;4918031;29;20094;-88
2024/01/03 11:07:50;;;;;;;10.73;1.92;;;8.70;99.90;;;;;;5222309;23;20062;-90
2024/01/03 11:20:55;;;;;;;13.90;2.92;;;9.60;99.90;;;;;;5488474;23;20074;-84
2024/01/03 11:23:31;;;;;;;12.63;3.13;;;11.00;99.90;;;;;;4925076;29;20047;-84
2024/01/03 11:25:57;;;;;;;13.35;2.85;;;9.50;99.90;;;;;;4929206;29;20603;-87
2024/01/03 11:28:33;;;;;;;13.00;2.50;;;9.40;99.90;;;;;;4914694;29;20039;-87
2024/01/03 11:30:59;;;;;;;9.13;1.87;;;9.80;99.90;;;;;;4924268;29;20039;-87
2024/01/03 11:33:38;;;;;;;13.43;2.13;;;9.90;99.90;;;;;;4937162;29;20409;-87
2024/01/03 11:36:05;;;;;;;12.57;3.00;;;9.90;99.90;;;;;;4935735;29;20090;-86
2024/01/03 11:38:44;;;;;;;7.53;2.10;;;9.10;99.90;;;;;;4936663;29;20530;-86
2024/01/03 11:41:15;;;;;;;9.17;2.00;;;9.00;99.90;;;;;;4936053;29;20130;-86
2024/01/03 11:43:41;;;;;;;6.43;1.80;;;9.00;99.90;;;;;;4938030;29;20130;-86
2024/01/03 11:46:10;;;;;;;5.97;1.90;;;8.90;99.90;;;;;;4936218;29;20569;-84
2024/01/03 11:48:38;;;;;;;7.37;2.07;;;9.00;99.90;;;;;;4935703;29;20053;-85
2024/01/03 11:51:23;;;;;;;9.23;2.35;;;8.90;99.90;;;;;;4932212;29;20043;-84
2024/01/03 11:53:50;;;;;;;11.65;2.22;;;8.90;99.90;;;;;;4930622;29;20114;-83
2024/01/03 11:56:30;;;;;;;10.85;2.20;;;8.90;99.90;;;;;;4925624;29;20040;-83
2024/01/03 11:58:57;;;;;;;9.68;2.20;;;8.90;99.90;;;;;;4927328;29;20043;-84
2024/01/03 12:01:23;;;;;;;7.88;2.40;;;9.10;99.90;;;;;;4925213;29;20063;-84
2024/01/03 12:03:49;;;;;;;11.80;1.95;;;8.80;99.90;;;;;;4937367;29;20047;-83
2024/01/03 12:06:19;;;;;;;15.30;2.55;;;8.90;99.90;;;;;;4928689;29;20035;-84
2024/01/03 12:08:44;;;;;;;11.35;2.60;;;10.00;99.90;;;;;;4929686;29;20067;-84
2024/01/03 12:11:10;;;;;;;12.05;2.97;;;8.90;99.90;;;;;;4930749;29;20134;-84
2024/01/03 12:13:36;;;;;;;11.63;3.53;;;8.90;99.90;;;;;;4933874;29;20055;-84
2024/01/03 12:16:02;;;;;;;17.00;5.13;;;8.90;99.90;;;;;;4927030;29;20051;-84
2024/01/03 12:18:28;;;;;;;10.63;2.35;;;8.90;99.90;;;;;;4930028;29;20052;-84
2024/01/03 12:20:53;;;;;;;9.20;2.55;;;8.90;99.90;;;;;;4929166;29;20051;-85
2024/01/03 12:23:36;;;;;;;12.77;2.70;;;8.90;99.90;;;;;;4929191;29;20083;-85
2024/01/03 12:26:09;;;;;;;10.47;2.63;;;8.90;99.90;;;;;;4929316;29;20052;-85
2024/01/03 12:28:36;;;;;;;9.52;2.10;;;9.30;99.90;;;;;;4929323;29;20785;-85
2024/01/03 12:31:01;;;;;;;10.52;2.65;;;8.80;99.90;;;;;;4928520;29;20047;-85
2024/01/03 12:33:27;;;;;;;10.88;2.03;;;8.90;99.90;;;;;;4927916;29;20082;-85
2024/01/03 12:35:53;;;;;;;9.95;2.40;;;8.80;99.90;;;;;;4928506;29;20493;-84
2024/01/03 12:38:22;;;;;;;11.15;2.35;;;8.80;99.90;;;;;;4927310;29;20055;-83
2024/01/03 12:40:48;;;;;;;10.57;2.40;;;8.80;99.90;;;;;;4929007;29;20043;-84
2024/01/03 12:43:14;;;;;;;8.90;2.45;;;8.80;99.90;;;;;;4928982;29;20047;-84
2024/01/03 12:45:39;;;;;;;13.50;2.30;;;8.70;99.90;;;;;;4928055;29;20487;-84
2024/01/03 12:48:05;;;;;;;10.38;2.20;;;8.70;99.90;;;;;;4929855;29;20487;-85
2024/01/03 12:50:31;;;;;;;9.60;2.47;;;8.70;99.90;;;;;;4928706;29;20039;-84
2024/01/03 12:52:57;;;;;;;11.75;3.17;;;8.70;99.90;;;;;;4927772;29;20051;-85
2024/01/03 12:55:22;;;;;;;10.73;2.40;;;8.70;99.90;;;;;;4930121;29;20446;-84
2024/01/03 12:57:48;;;;;;;11.35;2.40;;;8.70;99.90;;;;;;4929960;29;20050;-86
2024/01/03 13:00:14;;;;;;;11.60;2.83;;;8.70;99.90;;;;;;4927490;29;20718;-87
2024/01/03 13:02:40;;;;;;;10.40;2.58;;;8.70;99.90;;;;;;4928284;29;20055;-89
2024/01/03 13:05:06;;;;;;;9.27;2.58;;;8.70;99.90;;;;;;4929361;29;20039;-88
2024/01/03 13:07:31;;;;;;;15.25;2.80;;;8.70;99.90;;;;;;4927570;29;20059;-89
2024/01/03 13:09:57;;;;;;;9.20;2.17;;;8.70;99.90;;;;;;4923611;29;20051;-87
2024/01/03 13:12:23;;;;;;;11.52;2.60;;;8.70;99.90;;;;;;4919188;29;20505;-87
2024/01/03 13:14:50;;;;;;;13.63;2.97;;;8.60;99.90;;;;;;4918005;29;20681;-88
2024/01/03 13:17:16;;;;;;;12.85;2.30;;;10.00;99.90;;;;;;4919050;29;20403;-87
2024/01/03 13:19:42;;;;;;;13.75;3.35;;;8.70;99.90;;;;;;4917903;29;20047;-89
2024/01/03 13:22:10;;;;;;;11.05;3.20;;;8.70;99.90;;;;;;4931321;29;20052;-87
2024/01/03 13:24:38;;;;;;;13.77;2.65;;;9.90;99.90;;;;;;4935762;29;20138;-87
2024/01/03 13:27:04;;;;;;;9.60;2.10;;;9.80;99.90;;;;;;4933000;29;20079;-87
2024/01/03 13:29:31;;;;;;;11.57;2.95;;;8.60;99.90;;;;;;4933090;28;20055;-86
2024/01/03 13:31:57;;;;;;;11.80;2.85;;;8.50;99.90;;;;;;4933109;29;20043;-86
2024/01/03 13:34:23;;;;;;;16.25;3.50;;;9.70;99.90;;;;;;4934522;29;20043;-86
2024/01/03 13:36:49;;;;;;;12.00;3.10;;;8.60;99.90;;;;;;4935023;29;20056;-86
2024/01/03 13:39:14;;;;;;;9.90;2.33;;;8.60;99.90;;;;;;4934764;29;20044;-87
2024/01/03 13:41:40;;;;;;;12.18;2.53;;;8.60;99.90;;;;;;4934687;28;20582;-86
2024/01/03 13:44:06;;;;;;;16.63;3.20;;;8.60;99.90;;;;;;4934722;29;20052;-87
2024/01/03 13:46:31;;;;;;;12.40;2.53;;;8.60;99.90;;;;;;4934725;29;20488;-86
2024/01/03 13:48:57;;;;;;;10.73;2.38;;;8.70;99.90;;;;;;4937054;29;20122;-86
2024/01/03 13:51:23;;;;;;;11.30;2.53;;;8.60;99.90;;;;;;4934648;29;20047;-87
2024/01/03 13:53:50;;;;;;;13.15;2.72;;;8.50;99.90;;;;;;4933339;29;20093;-86
2024/01/03 13:56:20;;;;;;;12.50;2.47;;;8.60;99.90;;;;;;4929169;29;20039;-87
2024/01/03 13:58:48;;;;;;;15.77;2.45;;;8.50;99.90;;;;;;4934275;29;20511;-87
2024/01/03 14:01:14;;;;;;;10.40;2.88;;;9.10;99.90;;;;;;4926420;29;20040;-87
2024/01/03 14:03:39;;;;;;;14.13;2.83;;;8.50;99.90;;;;;;4917649;29;20047;-87
2024/01/03 14:06:08;;;;;;;11.07;2.63;;;8.50;99.90;;;;;;4917569;29;20467;-87
2024/01/03 14:08:33;;;;;;;13.32;2.40;;;8.40;99.90;;;;;;4918261;28;20040;-89
2024/01/03 14:11:01;;;;;;;9.40;2.00;;;8.50;99.90;;;;;;4937885;29;20517;-86
2024/01/03 14:13:27;;;;;;;10.60;2.20;;;8.40;99.90;;;;;;4937614;29;20054;-86
2024/01/03 14:15:54;;;;;;;9.70;2.40;;;8.40;99.90;;;;;;4933794;29;20406;-85
2024/01/03 14:18:19;;;;;;;10.53;2.07;;;8.40;99.90;;;;;;4937998;29;20063;-89
2024/01/03 14:20:47;;;;;;;13.90;2.87;;;9.80;99.90;;;;;;4935974;29;20054;-86
2024/01/03 14:23:13;;;;;;;14.83;4.50;;;8.80;99.90;;;;;;4935931;28;20055;-88
2024/01/03 14:25:42;;;;;;;20.93;9.47;;;8.50;99.90;;;;;;4937532;29;20043;-87
2024/01/03 14:28:09;;;;;;;16.30;7.30;;;8.50;99.90;;;;;;4937249;29;20066;-86
2024/01/03 14:30:35;;;;;;;16.17;8.17;;;9.30;99.90;;;;;;4925398;29;20134;-86
2024/01/03 14:33:01;;;;;;;15.27;4.07;;;8.50;99.90;;;;;;4918563;29;20063;-87
2024/01/03 14:35:27;;;;;;;14.07;3.87;;;9.60;99.90;;;;;;4923936;29;20130;-85
2024/01/03 14:37:52;;;;;;;13.47;4.30;;;8.60;99.90;;;;;;4945672;29;20384;-87
2024/01/03 14:40:20;;;;;;;20.17;10.13;;;8.60;99.90;;;;;;4923249;29;20479;-86
2024/01/03 14:42:50;;;;;;;13.40;3.90;;;8.60;99.90;;;;;;4927965;29;20407;-86
2024/01/03 14:45:17;;;;;;;14.87;5.07;;;8.60;99.90;;;;;;4930657;29;20039;-86
2024/01/03 14:47:44;;;;;;;19.45;4.53;;;8.70;99.90;;;;;;4949725;29;20052;-86
2024/01/03 14:50:11;;;;;;;15.63;3.88;;;8.70;99.90;;;;;;4924256;29;20424;-86
2024/01/03 14:52:37;;;;;;;18.63;4.07;;;8.70;99.90;;;;;;4927604;29;20103;-86
2024/01/03 14:55:02;;;;;;;12.38;3.45;;;9.70;99.90;;;;;;4928976;29;20569;-87
2024/01/03 14:57:28;;;;;;;17.17;3.13;;;8.70;99.90;;;;;;4929030;28;20043;-87
2024/01/03 14:59:53;;;;;;;18.90;3.30;;;8.70;99.90;;;;;;4925178;29;20205;-86
2024/01/03 15:02:19;;;;;;;11.75;2.88;;;8.70;99.90;;;;;;4924522;28;20411;-86
2024/01/03 15:04:45;;;;;;;14.63;3.33;;;8.70;99.90;;;;;;4925560;29;20051;-86
2024/01/03 15:07:10;;;;;;;14.53;3.33;;;8.70;99.90;;;;;;4926473;29;20141;-86
2024/01/03 15:09:38;;;;;;;16.95;3.03;;;8.70;99.90;;;;;;4927865;29;20495;-87
2024/01/03 15:12:05;;;;;;;20.00;5.75;;;8.70;99.90;;;;;;4925164;29;20043;-87
2024/01/03 15:14:33;;;;;;;18.13;5.22;;;8.70;99.90;;;;;;4928819;28;20047;-87
2024/01/03 15:16:58;;;;;;;16.02;3.25;;;8.70;99.90;;;;;;4927638;29;20051;-86
2024/01/03 15:19:24;;;;;;;23.27;10.70;;;8.70;99.90;;;;;;4926819;29;20036;-86
2024/01/03 15:22:14;;;;;;;17.17;4.30;;;8.70;99.90;;;;;;4944377;29;20099;-86
2024/01/03 15:24:41;;;;;;;21.57;6.60;;;8.70;99.90;;;;;;4927788;29;20056;-86
2024/01/03 15:27:06;;;;;;;17.42;6.60;;;8.60;99.90;;;;;;4925961;29;20047;-86
2024/01/03 15:29:32;;;;;;;23.03;10.30;;;8.70;99.90;;;;;;4926273;29;20047;-86
2024/01/03 15:31:58;;;;;;;26.50;15.20;;;8.60;99.90;;;;;;4926254;29;20372;-85
2024/01/03 15:34:27;;;;;;;15.77;3.93;;;8.60;99.90;;;;;;4924664;29;20091;-86
2024/01/03 15:36:54;;;;;;;15.83;2.97;;;8.60;99.90;;;;;;4943724;28;20054;-86
2024/01/03 15:39:20;;;;;;;17.43;3.33;;;9.90;99.90;;;;;;4948624;29;20051;-86
2024/01/03 15:41:46;;;;;;;15.53;4.07;;;8.60;99.90;;;;;;4929959;29;20047;-87
2024/01/03 15:44:12;;;;;;;17.13;3.87;;;8.60;99.90;;;;;;4929478;29;20054;-86
2024/01/03 15:46:38;;;;;;;16.13;4.55;;;8.60;99.90;;;;;;4930956;29;20047;-86
2024/01/03 15:49:04;;;;;;;17.38;3.72;;;8.60;99.90;;;;;;4931981;29;20079;-85
2024/01/03 15:52:05;;;;;;;16.77;3.17;;;9.80;99.90;;;;;;4930240;29;20043;-89
2024/01/03 15:54:31;;;;;;;21.35;3.00;;;8.60;99.90;;;;;;4930323;29;20078;-85
2024/01/03 15:56:58;;;;;;;22.67;7.03;;;8.60;99.90;;;;;;4931172;29;20075;-85
2024/01/03 15:59:24;;;;;;;18.83;3.60;;;8.60;99.90;;;;;;4930693;29;20043;-85
2024/01/03 16:01:50;;;;;;;19.13;4.32;;;8.60;99.90;;;;;;4930085;29;20044;-84
2024/01/03 16:04:15;;;;;;;21.63;5.55;;;8.60;99.90;;;;;;4929033;29;20468;-84
2024/01/03 16:06:41;;;;;;;14.38;2.88;;;8.60;99.90;;;;;;4931057;29;20055;-85
2024/01/03 16:09:08;;;;;;;19.70;3.80;;;8.60;99.90;;;;;;4929024;29;20040;-85
2024/01/03 16:11:34;;;;;;;14.07;3.78;;;8.60;99.90;;;;;;4930392;28;20054;-89
2024/01/03 16:14:00;;;;;;;14.90;3.60;;;8.60;99.90;;;;;;4932920;29;20036;-87
2024/01/03 16:16:25;;;;;;;25.80;5.80;;;8.60;99.90;;;;;;4929636;29;20488;-87
2024/01/03 16:18:51;;;;;;;21.40;5.78;;;8.60;99.90;;;;;;4929917;29;20149;-85
2024/01/03 16:21:17;;;;;;;19.50;7.57;;;8.20;99.90;;;;;;4939450;29;20063;-86
2024/01/03 16:23:48;;;;;;;19.60;4.63;;;8.60;99.90;;;;;;4936375;29;20048;-86
2024/01/03 16:26:14;;;;;;;23.80;6.82;;;8.70;99.90;;;;;;4939853;29;20047;-87
2024/01/03 16:28:50;;;;;;;18.33;3.77;;;8.50;99.90;;;;;;4938086;29;20155;-87
2024/01/03 16:31:16;;;;;;;21.63;6.57;;;9.00;99.90;;;;;;4935843;29;20443;-87
2024/01/03 16:33:43;;;;;;;23.85;4.95;;;8.50;99.90;;;;;;4938319;29;20039;-88
2024/01/03 16:36:21;;;;;;;22.00;4.70;;;9.40;99.90;;;;;;4937099;29;20516;-93
2024/01/03 16:38:48;;;;;;;20.70;4.55;;;9.20;99.90;;;;;;4941364;29;20530;-92
2024/01/03 16:41:15;;;;;;;17.88;3.40;;;9.60;99.90;;;;;;4939081;29;20491;-91
2024/01/03 16:43:45;;;;;;;17.65;3.80;;;8.50;99.90;;;;;;4933309;28;20051;-91
2024/01/03 16:46:11;;;;;;;20.33;3.50;;;8.40;99.90;;;;;;4925523;29;20050;-90
2024/01/03 16:48:37;;;;;;;18.25;3.95;;;9.70;99.90;;;;;;4929420;29;20039;-89
2024/01/03 16:51:04;;;;;;;20.10;4.30;;;8.40;99.90;;;;;;4934773;29;20052;-89
2024/01/03 16:53:31;;;;;;;18.60;3.87;;;8.40;99.90;;;;;;4948714;28;20044;-89
2024/01/03 16:55:57;;;;;;;22.83;4.30;;;8.50;99.90;;;;;;4929225;29;20123;-89
2024/01/03 16:58:23;;;;;;;23.15;5.50;;;8.40;99.90;;;;;;4922436;29;20532;-89
2024/01/03 17:00:52;;;;;;;19.70;5.30;;;8.40;99.90;;;;;;4938192;29;20061;-89
2024/01/03 17:03:18;;;;;;;20.65;5.70;;;9.70;99.90;;;;;;4939073;29;20376;-89
2024/01/03 17:05:44;;;;;;;19.08;4.28;;;8.60;99.90;;;;;;4931276;29;20110;-90
2024/01/03 17:08:09;;;;;;;19.20;4.10;;;8.70;99.90;;;;;;4932206;29;20491;-88
2024/01/03 17:10:35;;;;;;;21.58;4.03;;;8.40;99.90;;;;;;4925776;29;20043;-89
2024/01/03 17:13:01;;;;;;;18.17;3.60;;;9.10;99.90;;;;;;4935881;28;20043;-90
2024/01/03 17:15:34;;;;;;;19.97;3.80;;;9.50;99.90;;;;;;4927430;29;20117;-93
2024/01/03 17:18:03;;;;;;;19.15;4.30;;;8.40;99.90;;;;;;4937608;28;20121;-92
2024/01/03 17:20:29;;;;;;;16.10;3.75;;;8.40;99.90;;;;;;4933650;29;20063;-89
2024/01/03 17:23:02;;;;;;;18.83;3.83;;;8.70;99.90;;;;;;4936115;29;20055;-89
2024/01/03 17:25:34;;;;;;;15.90;4.40;;;8.30;99.90;;;;;;4934519;29;20578;-92
2024/01/03 17:28:11;;;;;;;16.63;4.00;;;9.20;99.90;;;;;;4939609;23;20426;-95
2024/01/03 17:30:40;;;;;;;18.67;4.28;;;8.30;99.90;;;;;;4936031;29;20077;-95
2024/01/03 17:41:51;;;;;;;14.60;2.73;;;8.10;99.90;;;;;;4957704;23;20059;-94
2024/01/03 17:48:03;;;;;;;10.40;2.40;;;9.20;99.90;;;;;;4951185;28;20058;-92
2024/01/03 17:50:42;;;;;;;10.90;2.80;;;8.00;99.90;;;;;;4947601;28;20094;-92
2024/01/03 17:53:39;;;;;;;9.95;2.30;;;9.10;99.90;;;;;;4941114;28;20150;-95
2024/01/03 17:56:43;;;;;;;11.83;2.50;;;8.00;99.90;;;;;;4950094;28;20065;-94
2024/01/03 17:59:16;;;;;;;13.45;2.75;;;7.30;99.90;;;;;;4946457;28;20051;-94
2024/01/03 18:02:12;;;;;;;14.77;2.57;;;8.10;99.90;;;;;;4958608;28;20045;-93
2024/01/03 18:04:41;;;;;;;11.43;2.22;;;9.70;99.90;;;;;;4911822;29;20059;-94
2024/01/03 18:07:16;;;;;;;13.63;2.30;;;7.60;99.90;;;;;;5107494;23;20052;-93
2024/01/03 18:10:04;;;;;;;10.40;2.35;;;9.20;99.90;;;;;;4907096;29;20056;-92
2024/01/03 18:12:35;;;;;;;14.37;3.00;;;8.10;99.90;;;;;;4907397;29;20055;-92
2024/01/03 18:15:14;;;;;;;16.03;2.60;;;9.00;99.90;;;;;;4917462;29;20051;-92
2024/01/03 18:17:44;;;;;;;11.27;2.40;;;7.30;99.90;;;;;;4919404;29;20522;-94
2024/01/03 18:20:14;;;;;;;14.95;2.92;;;8.50;99.90;;;;;;4911994;29;20043;-93
2024/01/03 18:22:46;;;;;;;9.87;2.30;;;9.50;99.90;;;;;;4930918;29;20051;-92
2024/01/03 18:25:43;;;;;;;12.60;3.27;;;9.50;99.90;;;;;;4949286;29;20130;-93
2024/01/03 18:28:11;;;;;;;9.77;2.60;;;7.80;99.90;;;;;;4946959;23;20055;-93
2024/01/03 18:30:42;;;;;;;12.27;3.40;;;8.60;99.90;;;;;;4938980;29;20051;-92
2024/01/03 18:33:17;;;;;;;16.70;3.57;;;6.90;99.90;;;;;;4938660;29;20057;-93
2024/01/03 18:35:46;;;;;;;16.00;3.25;;;8.30;99.90;;;;;;4939988;29;20127;-91
2024/01/03 18:38:27;;;;;;;15.43;3.10;;;9.50;99.90;;;;;;4937371;29;20062;-89
2024/01/03 18:40:57;;;;;;;16.30;5.27;;;9.40;99.90;;;;;;4937642;29;20043;-90
2024/01/03 18:43:29;;;;;;;10.77;2.97;;;8.10;99.90;;;;;;4936598;29;20399;-89
2024/01/03 18:46:00;;;;;;;12.90;4.00;;;8.60;99.90;;;;;;4934228;29;20126;-88
2024/01/03 18:48:31;;;;;;;22.03;10.50;;;8.90;99.90;;;;;;4919074;29;20087;-89
2024/01/03 18:51:00;;;;;;;11.43;3.50;;;7.40;99.90;;;;;;4936457;29;20047;-88
2024/01/03 18:53:33;;;;;;;15.67;5.80;;;8.40;99.90;;;;;;4935784;29;20098;-89
2024/01/03 18:56:02;;;;;;;11.50;3.50;;;9.00;99.90;;;;;;4918205;29;20047;-89
2024/01/03 18:58:33;;;;;;;14.45;6.32;;;7.70;99.90;;;;;;4917932;29;20048;-89
2024/01/03 19:01:04;;;;;;;14.07;6.07;;;7.80;99.90;;;;;;4918272;29;20044;-89
2024/01/03 19:03:32;;;;;;;19.67;7.20;;;7.70;99.90;;;;;;4917971;29;20138;-89
2024/01/03 19:06:07;;;;;;;16.27;6.60;;;8.80;99.90;;;;;;4917518;29;20448;-88
2024/01/03 19:08:39;;;;;;;12.30;4.60;;;7.70;99.90;;;;;;4917995;29;20054;-89
2024/01/03 19:11:05;;;;;;;16.90;5.80;;;6.80;99.90;;;;;;4917530;29;20043;-90
2024/01/03 19:13:31;;;;;;;12.75;3.90;;;7.80;99.90;;;;;;4921475;29;20550;-89
2024/01/03 19:16:01;;;;;;;15.97;4.70;;;9.00;99.90;;;;;;4922228;29;20062;-89
2024/01/03 19:18:36;;;;;;;13.30;4.88;;;8.40;99.90;;;;;;4921453;29;20130;-90
2024/01/03 19:21:03;;;;;;;18.20;5.47;;;8.60;99.90;;;;;;4921795;29;20058;-89
2024/01/03 19:23:34;;;;;;;15.73;4.83;;;7.80;99.90;;;;;;4922188;29;20043;-89
2024/01/03 19:26:06;;;;;;;17.98;4.78;;;9.10;99.90;;;;;;4921101;29;20048;-89
2024/01/03 19:28:34;;;;;;;12.88;4.32;;;7.70;99.90;;;;;;4921928;29;20059;-88
2024/01/03 19:31:11;;;;;;;16.98;5.97;;;7.80;99.90;;;;;;4921381;29;20063;-89
2024/01/03 19:33:36;;;;;;;24.20;9.50;;;9.40;99.90;;;;;;4921603;29;20117;-90
2024/01/03 19:36:08;;;;;;;16.17;5.55;;;7.80;99.90;;;;;;4922264;29;20044;-89
2024/01/03 19:38:43;;;;;;;17.42;6.18;;;8.80;99.90;;;;;;4921991;29;20058;-88
2024/01/03 19:41:16;;;;;;;18.88;6.28;;;7.50;99.90;;;;;;4920893;29;20488;-88
2024/01/03 19:46:21;;;;;;;16.93;6.30;;;7.90;99.90;;;;;;5133393;23;20307;-91
2024/01/03 19:48:51;;;;;;;18.47;6.40;;;8.70;99.90;;;;;;4983030;23;20054;-91
2024/01/03 19:51:18;;;;;;;23.33;7.25;;;8.80;99.90;;;;;;4978411;28;20546;-91
2024/01/03 19:53:48;;;;;;;19.77;6.60;;;8.00;99.90;;;;;;4966319;28;20114;-91
2024/01/03 19:56:17;;;;;;;17.10;7.10;;;7.90;99.90;;;;;;4975259;28;20042;-91
2024/01/03 19:58:49;;;;;;;19.37;6.87;;;9.50;99.90;;;;;;4978445;28;20428;-91
2024/01/03 20:01:14;;;;;;;22.08;7.45;;;7.50;99.90;;;;;;4965857;23;20043;-87
2024/01/03 20:03:40;;;;;;;21.30;8.05;;;8.10;99.90;;;;;;4959000;28;20061;-87
2024/01/03 20:06:20;;;;;;;27.33;9.23;;;8.20;99.90;;;;;;4958327;28;20075;-88
2024/01/03 20:08:46;;;;;;;24.23;8.97;;;7.60;99.90;;;;;;4958170;28;20050;-88
2024/01/03 20:11:12;;;;;;;23.95;9.38;;;7.90;99.90;;;;;;4932756;28;20043;-88
2024/01/03 20:13:45;;;;;;;22.20;10.17;;;7.80;99.90;;;;;;4958738;28;20089;-89
2024/01/03 20:16:16;;;;;;;21.37;9.40;;;7.80;99.90;;;;;;4957949;28;20053;-88
2024/01/03 20:18:45;;;;;;;20.70;8.45;;;8.60;99.90;;;;;;4958151;28;20051;-89
2024/01/03 20:21:17;;;;;;;18.93;8.10;;;8.80;99.90;;;;;;4957699;28;20043;-88
2024/01/03 20:23:46;;;;;;;19.05;7.97;;;9.20;99.90;;;;;;4957656;28;20050;-88
2024/01/03 20:26:14;;;;;;;24.30;8.45;;;8.50;99.90;;;;;;4958331;28;20055;-84
2024/01/03 20:28:49;;;;;;;22.27;7.30;;;7.60;99.90;;;;;;4958336;28;20047;-88
2024/01/03 20:31:21;;;;;;;18.83;7.17;;;8.60;99.90;;;;;;4958164;28;20053;-88
2024/01/03 20:33:53;;;;;;;18.13;7.85;;;7.60;99.90;;;;;;4956961;28;20050;-87
2024/01/03 20:36:27;;;;;;;20.88;7.43;;;7.50;99.90;;;;;;4954114;28;20133;-87
2024/01/03 20:39:00;;;;;;;21.50;7.20;;;8.00;99.90;;;;;;4926692;29;20103;-86
2024/01/03 20:41:26;;;;;;;22.67;7.03;;;7.80;99.90;;;;;;4944457;28;20109;-87
2024/01/03 20:43:52;;;;;;;18.17;7.20;;;8.50;99.90;;;;;;4953944;28;20055;-87
2024/01/03 20:46:17;;;;;;;20.80;7.60;;;7.80;99.90;;;;;;4948128;28;20490;-87
2024/01/03 20:48:43;;;;;;;20.48;7.32;;;9.30;99.90;;;;;;4943238;28;20041;-87
2024/01/03 20:51:16;;;;;;;18.23;7.30;;;8.70;99.90;;;;;;4964982;28;20074;-87
2024/01/03 20:53:41;;;;;;;20.77;7.50;;;7.90;99.90;;;;;;4940834;29;20043;-86
2024/01/03 20:56:07;;;;;;;18.97;7.20;;;8.40;99.90;;;;;;4938149;29;20368;-87
2024/01/03 20:58:32;;;;;;;21.77;7.10;;;7.90;99.90;;;;;;4968879;28;20035;-88
2024/01/03 21:00:58;;;;;;;21.57;7.30;;;8.20;99.90;;;;;;4953540;28;20514;-87
2024/01/03 21:03:24;;;;;;;22.10;7.23;;;8.50;99.90;;;;;;4939681;29;20451;-87
2024/01/03 21:05:49;;;;;;;20.67;7.10;;;7.90;99.90;;;;;;4927111;29;20068;-87
2024/01/03 21:08:15;;;;;;;28.02;7.95;;;7.90;99.90;;;;;;4924607;29;20050;-87
2024/01/03 21:10:41;;;;;;;21.60;7.87;;;7.90;99.90;;;;;;4949799;28;20074;-86
2024/01/03 21:13:07;;;;;;;20.33;7.60;;;7.80;99.90;;;;;;4957577;28;20093;-88
2024/01/03 21:15:35;;;;;;;21.98;7.47;;;8.60;99.90;;;;;;4945696;28;20070;-87
2024/01/03 21:18:01;;;;;;;16.77;6.93;;;8.30;99.90;;;;;;4938333;29;20043;-87
2024/01/03 21:20:26;;;;;;;20.20;6.23;;;8.70;99.90;;;;;;4954093;28;20162;-87
2024/01/03 21:22:52;;;;;;;18.23;5.80;;;8.90;99.90;;;;;;4956797;28;20059;-87
2024/01/03 21:25:18;;;;;;;20.60;5.97;;;7.80;99.90;;;;;;4941067;28;20080;-87
2024/01/03 21:27:43;;;;;;;21.00;7.30;;;7.80;99.90;;;;;;4950818;28;20055;-87
2024/01/03 21:30:09;;;;;;;23.03;7.27;;;7.80;99.90;;;;;;4938024;28;20047;-88
2024/01/03 21:32:35;;;;;;;21.47;6.60;;;7.80;99.90;;;;;;4938198;29;20443;-87
2024/01/03 21:35:04;;;;;;;23.27;6.87;;;7.80;99.90;;;;;;4950805;28;20117;-90
2024/01/03 21:37:32;;;;;;;19.40;6.17;;;7.80;99.90;;;;;;4956417;28;20055;-87
2024/01/03 21:40:01;;;;;;;18.93;6.20;;;8.00;99.90;;;;;;4955696;28;20050;-88
2024/01/03 21:42:27;;;;;;;16.03;6.20;;;8.70;99.90;;;;;;4957236;28;20050;-88
2024/01/03 21:44:53;;;;;;;17.77;5.90;;;7.70;99.90;;;;;;4956405;28;20070;-87
2024/01/03 21:47:19;;;;;;;19.77;5.28;;;8.80;99.90;;;;;;4956476;28;20050;-88
2024/01/03 21:49:44;;;;;;;21.42;11.43;;;7.70;99.90;;;;;;4957614;28;20111;-88
2024/01/03 21:52:10;;;;;;;19.80;6.57;;;7.70;99.90;;;;;;4955513;28;20394;-88
2024/01/03 21:54:44;;;;;;;28.33;15.07;;;7.70;99.90;;;;;;4956081;28;20051;-88
2024/01/03 21:57:16;;;;;;;15.43;5.60;;;7.70;99.90;;;;;;4956085;28;20066;-89
2024/01/03 21:59:45;;;;;;;23.40;8.33;;;6.90;99.90;;;;;;4956234;28;20042;-87
2024/01/03 22:02:26;;;;;;;21.90;11.80;;;7.60;99.90;;;;;;4924542;29;20412;-88
2024/01/03 22:04:58;;;;;;;17.97;6.50;;;8.90;99.90;;;;;;4951955;28;20121;-87
2024/01/03 22:07:24;;;;;;;15.93;5.20;;;9.00;99.90;;;;;;4955758;28;20049;-87
2024/01/03 22:09:56;;;;;;;14.43;4.10;;;7.70;99.90;;;;;;4956792;28;20097;-88
2024/01/03 22:12:24;;;;;;;16.87;4.67;;;8.90;99.90;;;;;;4956071;28;20047;-87
2024/01/03 22:14:53;;;;;;;14.47;4.93;;;8.10;99.90;;;;;;4954623;28;20042;-87
2024/01/03 22:17:25;;;;;;;14.23;4.20;;;8.00;99.90;;;;;;4955886;28;20038;-87
2024/01/03 22:19:57;;;;;;;19.67;7.30;;;7.40;99.90;;;;;;4946911;29;20047;-88
2024/01/03 22:22:28;;;;;;;21.90;13.60;;;8.20;99.90;;;;;;4941887;28;20441;-87
2024/01/03 22:24:57;;;;;;;19.17;7.97;;;7.30;99.90;;;;;;4939621;28;20060;-87
2024/01/03 22:27:26;;;;;;;29.23;15.00;;;8.80;99.90;;;;;;4931286;28;20114;-87
2024/01/03 22:30:01;;;;;;;16.15;7.28;;;7.60;99.90;;;;;;4947683;28;20134;-88